createdAt,value
2023-05-21T00:00:10.610Z,440.7692
2023-05-21T00:01:12.406Z,438.3846
2023-05-21T00:02:14.061Z,434.6923
2023-05-21T00:03:15.925Z,436.9231
2023-05-21T00:04:17.539Z,440.7692
2023-05-21T00:05:19.248Z,440.3846
2023-05-21T00:06:21.199Z,439.6154
2023-05-21T00:07:22.685Z,440.3077
2023-05-21T00:08:24.426Z,439.9231
2023-05-21T00:09:26.168Z,440.4615
2023-05-21T00:10:27.833Z,441.0769
2023-05-21T00:11:29.580Z,438.6154
2023-05-21T00:12:31.301Z,439.5385
2023-05-21T00:13:33.003Z,441.3846
2023-05-21T00:14:34.749Z,439.6923
2023-05-21T00:15:36.670Z,439.3077
2023-05-21T00:16:38.324Z,442.3846
2023-05-21T00:17:40.112Z,443.1538
2023-05-21T00:18:41.657Z,443.0000
2023-05-21T00:19:43.338Z,440.9231
2023-05-21T00:20:45.064Z,439.0000
2023-05-21T00:21:46.788Z,438.0769
2023-05-21T00:22:48.516Z,437.0769
2023-05-21T00:23:50.261Z,438.6154
2023-05-21T00:24:51.953Z,440.8462
2023-05-21T00:25:53.693Z,441.2308
2023-05-21T00:26:55.412Z,440.4615
2023-05-21T00:27:57.115Z,441.2308
2023-05-21T00:28:58.850Z,440.9231
2023-05-21T00:30:00.573Z,442.1538
2023-05-21T00:31:02.303Z,439.7692
2023-05-21T00:32:04.096Z,438.7692
2023-05-21T00:33:05.769Z,437.8462
2023-05-21T00:34:07.490Z,440.6154
2023-05-21T00:35:09.196Z,440.1538
2023-05-21T00:36:10.893Z,439.9231
2023-05-21T00:37:12.646Z,440.9231
2023-05-21T00:38:14.362Z,441.1538
2023-05-21T00:39:16.060Z,440.4615
2023-05-21T00:40:17.802Z,439.0000
2023-05-21T00:41:19.533Z,438.1538
2023-05-21T00:42:21.235Z,439.6154
2023-05-21T00:43:22.962Z,439.0000
2023-05-21T00:44:24.705Z,437.9231
2023-05-21T00:45:26.428Z,436.8462
2023-05-21T00:46:28.144Z,435.7692
2023-05-21T00:47:30.000Z,435.0000
2023-05-21T00:48:31.594Z,434.5385
2023-05-21T00:49:33.297Z,434.0769
2023-05-21T00:50:35.018Z,435.0000
2023-05-21T00:51:36.768Z,436.8462
2023-05-21T00:52:38.559Z,440.3846
2023-05-21T00:53:40.192Z,441.5385
2023-05-21T00:54:41.941Z,441.6154
2023-05-21T00:55:43.668Z,442.1538
2023-05-21T00:56:45.398Z,442.5385
2023-05-21T00:57:47.090Z,445.1538
2023-05-21T00:58:48.830Z,446.1538
2023-05-21T00:59:50.578Z,445.6923
2023-05-21T01:00:52.304Z,445.4615
2023-05-21T01:01:54.005Z,441.5385
2023-05-21T01:02:55.780Z,441.5385
2023-05-21T01:03:57.445Z,442.4615
2023-05-21T01:04:59.159Z,441.4615
2023-05-21T01:06:00.916Z,444.6923
2023-05-21T01:07:02.621Z,444.0769
2023-05-21T01:08:04.327Z,444.1538
2023-05-21T01:09:06.070Z,441.2308
2023-05-21T01:10:07.907Z,441.5385
2023-05-21T01:11:09.485Z,443.3077
2023-05-21T01:12:11.213Z,443.6154
2023-05-21T01:13:12.961Z,442.8462
2023-05-21T01:14:14.670Z,443.5385
2023-05-21T01:15:16.384Z,443.9231
2023-05-21T01:16:18.176Z,443.5385
2023-05-21T01:17:19.866Z,442.8462
2023-05-21T01:18:21.569Z,442.4615
2023-05-21T01:19:23.334Z,443.8462
2023-05-21T01:20:25.038Z,445.3077
2023-05-21T01:21:26.729Z,443.6923
2023-05-21T01:22:28.504Z,443.2308
2023-05-21T01:23:30.203Z,444.6923
2023-05-21T01:24:31.892Z,446.0000
2023-05-21T01:25:33.755Z,445.6154
2023-05-21T01:26:35.368Z,444.4615
2023-05-21T01:27:37.074Z,445.9231
2023-05-21T01:28:38.800Z,446.4615
2023-05-21T01:29:40.534Z,447.6923
2023-05-21T01:30:42.260Z,447.0000
2023-05-21T01:31:43.983Z,445.2308
2023-05-21T01:32:45.776Z,446.4615
2023-05-21T01:33:47.483Z,447.7692
2023-05-21T01:34:49.156Z,447.0769
2023-05-21T01:35:50.856Z,445.8462
2023-05-21T01:36:52.580Z,445.0769
2023-05-21T01:37:54.330Z,444.0769
2023-05-21T01:38:56.056Z,446.5385
2023-05-21T01:39:57.753Z,447.8462
2023-05-21T01:40:59.489Z,448.3077
2023-05-21T01:42:01.203Z,446.4615
2023-05-21T01:43:02.926Z,445.8462
2023-05-21T01:44:04.703Z,445.2308
2023-05-21T01:45:06.399Z,445.3846
2023-05-21T01:46:08.138Z,446.8462
2023-05-21T01:47:09.833Z,448.9231
2023-05-21T01:48:11.565Z,449.8462
2023-05-21T01:49:13.269Z,449.2308
2023-05-21T01:50:15.013Z,447.7692
2023-05-21T01:51:16.738Z,447.5385
2023-05-21T01:52:18.427Z,447.6154
2023-05-21T01:53:20.157Z,445.2308
2023-05-21T01:54:21.901Z,447.1538
2023-05-21T01:55:23.599Z,449.0000
2023-05-21T01:56:25.327Z,448.9231
2023-05-21T01:57:27.102Z,449.2308
2023-05-21T01:58:28.772Z,450.1538
2023-05-21T01:59:30.513Z,451.3846
2023-05-21T02:00:32.245Z,451.1538
2023-05-21T02:01:33.972Z,449.5385
2023-05-21T02:02:35.812Z,448.5385
2023-05-21T02:03:37.507Z,448.8462
2023-05-21T02:04:39.131Z,450.3077
2023-05-21T02:05:40.866Z,449.6923
2023-05-21T02:06:42.573Z,449.6154
2023-05-21T02:07:44.317Z,448.9231
2023-05-21T02:08:46.013Z,449.6154
2023-05-21T02:09:47.775Z,448.8462
2023-05-21T02:10:49.463Z,449.3333
2023-05-21T02:11:50.995Z,449.7500
2023-05-21T02:12:54.847Z,447.8333
2023-05-21T02:16:05.009Z,428.7500
2023-05-21T02:17:06.595Z,434.6154
2023-05-21T02:18:08.387Z,435.9231
2023-05-21T02:19:10.250Z,438.0769
2023-05-21T02:20:11.865Z,440.2308
2023-05-21T02:21:13.525Z,440.2308
2023-05-21T02:22:15.215Z,441.8462
2023-05-21T02:23:16.946Z,442.7692
2023-05-21T02:24:18.737Z,442.6154
2023-05-21T02:25:20.428Z,439.0769
2023-05-21T02:26:22.151Z,440.1538
2023-05-21T02:27:23.856Z,441.0769
2023-05-21T02:28:25.591Z,441.3077
2023-05-21T02:29:27.317Z,440.5385
2023-05-21T02:30:29.043Z,439.6923
2023-05-21T02:31:30.744Z,440.3846
2023-05-21T02:32:32.580Z,441.8462
2023-05-21T02:33:34.290Z,442.7692
2023-05-21T02:34:35.949Z,442.1538
2023-05-21T02:35:37.837Z,441.5385
2023-05-21T02:36:39.394Z,442.0769
2023-05-21T02:37:41.118Z,441.9231
2023-05-21T02:38:42.835Z,440.2308
2023-05-21T02:39:44.573Z,439.7692
2023-05-21T02:40:46.308Z,440.1538
2023-05-21T02:41:48.005Z,439.6923
2023-05-21T02:42:49.742Z,441.2308
2023-05-21T02:43:51.461Z,440.6154
2023-05-21T02:44:53.175Z,439.4615
2023-05-21T02:45:54.957Z,438.5385
2023-05-21T02:46:56.628Z,440.1538
2023-05-21T02:47:58.429Z,438.7692
2023-05-21T02:49:00.105Z,439.8462
2023-05-21T02:50:01.826Z,441.0769
2023-05-21T02:51:03.554Z,438.7692
2023-05-21T02:52:05.247Z,436.9231
2023-05-21T02:53:06.975Z,437.4615
2023-05-21T02:54:08.720Z,436.3846
2023-05-21T02:55:10.421Z,435.0000
2023-05-21T02:56:12.162Z,434.9231
2023-05-21T02:57:13.903Z,435.6923
2023-05-21T02:58:15.608Z,435.7692
2023-05-21T02:59:17.346Z,435.4615
2023-05-21T03:00:19.089Z,437.0769
2023-05-21T03:01:20.835Z,437.0000
2023-05-21T03:02:22.758Z,438.2308
2023-05-21T03:03:24.382Z,443.2308
2023-05-21T03:04:25.974Z,442.6154
2023-05-21T03:05:27.697Z,442.6923
2023-05-21T03:06:29.440Z,442.3077
2023-05-21T03:07:31.169Z,440.8462
2023-05-21T03:08:32.872Z,442.6154
2023-05-21T03:09:34.617Z,443.8462
2023-05-21T03:10:36.350Z,445.1538
2023-05-21T03:11:38.077Z,444.6923
2023-05-21T03:12:39.792Z,442.7692
2023-05-21T03:13:41.551Z,442.8462
2023-05-21T03:14:43.263Z,443.5385
2023-05-21T03:15:44.956Z,444.3846
2023-05-21T03:16:46.731Z,445.3846
2023-05-21T03:17:48.460Z,443.4615
2023-05-21T03:18:50.174Z,440.3077
2023-05-21T03:19:51.863Z,445.8462
2023-05-21T03:20:53.661Z,452.8462
2023-05-21T03:21:55.341Z,452.1538
2023-05-21T03:22:57.069Z,452.0000
2023-05-21T03:23:58.802Z,451.3846
2023-05-21T03:25:00.489Z,453.6923
2023-05-21T03:26:02.260Z,455.2308
2023-05-21T03:27:03.972Z,454.3846
2023-05-21T03:28:05.663Z,455.5385
2023-05-21T03:29:07.420Z,455.9231
2023-05-21T03:30:09.165Z,453.9231
2023-05-21T03:31:10.839Z,454.2308
2023-05-21T03:32:12.683Z,455.0000
2023-05-21T03:33:14.324Z,452.1538
2023-05-21T03:34:16.010Z,453.0769
2023-05-21T03:35:17.763Z,454.7692
2023-05-21T03:36:19.482Z,455.6923
2023-05-21T03:37:21.196Z,457.3846
2023-05-21T03:38:22.907Z,459.3846
2023-05-21T03:39:24.657Z,459.1538
2023-05-21T03:40:26.390Z,459.6923
2023-05-21T03:41:28.116Z,458.0000
2023-05-21T03:42:29.824Z,458.0000
2023-05-21T03:43:31.565Z,458.0769
2023-05-21T03:44:33.258Z,457.8462
2023-05-21T03:45:35.135Z,459.3846
2023-05-21T03:46:36.813Z,460.6154
2023-05-21T03:47:38.547Z,459.3077
2023-05-21T03:48:40.160Z,456.3846
2023-05-21T03:49:41.898Z,453.4615
2023-05-21T03:50:43.632Z,453.5385
2023-05-21T03:51:45.324Z,455.4615
2023-05-21T03:52:47.080Z,456.6154
2023-05-21T03:53:48.800Z,457.9231
2023-05-21T03:54:50.500Z,458.0000
2023-05-21T03:55:52.236Z,457.3077
2023-05-21T03:56:53.976Z,458.6154
2023-05-21T03:57:55.693Z,457.0000
2023-05-21T03:58:57.404Z,457.2308
2023-05-21T03:59:59.173Z,456.9231
2023-05-21T04:01:00.852Z,456.0000
2023-05-21T04:02:02.572Z,452.3846
2023-05-21T04:03:04.415Z,452.7692
2023-05-21T04:04:06.222Z,453.6923
2023-05-21T04:05:07.753Z,453.1538
2023-05-21T04:06:09.508Z,453.3846
2023-05-21T04:07:11.197Z,453.4615
2023-05-21T04:08:12.957Z,452.3077
2023-05-21T04:09:14.653Z,452.5385
2023-05-21T04:10:16.368Z,453.0000
2023-05-21T04:11:18.107Z,453.9231
2023-05-21T04:12:19.853Z,453.7692
2023-05-21T04:13:21.573Z,453.6923
2023-05-21T04:14:23.311Z,453.9231
2023-05-21T04:15:25.008Z,454.7692
2023-05-21T04:16:26.741Z,455.3077
2023-05-21T04:17:28.453Z,455.0000
2023-05-21T04:18:30.245Z,452.8462
2023-05-21T04:19:31.978Z,453.2308
2023-05-21T04:20:33.644Z,454.4615
2023-05-21T04:21:35.346Z,453.5385
2023-05-21T04:22:37.060Z,450.6154
2023-05-21T04:23:38.824Z,450.3846
2023-05-21T04:24:40.499Z,452.0000
2023-05-21T04:25:42.246Z,450.5385
2023-05-21T04:26:43.968Z,449.0000
2023-05-21T04:27:45.670Z,446.0000
2023-05-21T04:28:47.449Z,445.5385
2023-05-21T04:29:50.702Z,445.5385
2023-05-21T04:30:50.861Z,446.6923
2023-05-21T04:31:52.620Z,448.6154
2023-05-21T04:32:54.315Z,447.5385
2023-05-21T04:33:56.028Z,447.0769
2023-05-21T04:34:57.733Z,446.2308
2023-05-21T04:35:59.486Z,444.6923
2023-05-21T04:37:01.183Z,442.8462
2023-05-21T04:38:04.194Z,443.5385
2023-05-21T04:40:05.504Z,433.0000
2023-05-21T04:41:07.158Z,442.7692
2023-05-21T04:42:08.879Z,443.4615
2023-05-21T04:43:10.711Z,443.9231
2023-05-21T04:44:12.327Z,443.9231
2023-05-21T04:45:14.031Z,445.3077
2023-05-21T04:46:15.865Z,446.0769
2023-05-21T04:47:17.545Z,446.6154
2023-05-21T04:48:19.271Z,444.0000
2023-05-21T04:49:20.979Z,443.3846
2023-05-21T04:50:22.669Z,444.9231
2023-05-21T04:51:24.400Z,446.3846
2023-05-21T04:52:26.093Z,445.9231
2023-05-21T04:53:27.824Z,445.4615
2023-05-21T04:54:29.581Z,442.8462
2023-05-21T04:55:31.269Z,443.1538
2023-05-21T04:56:33.030Z,442.0769
2023-05-21T04:57:34.734Z,442.6154
2023-05-21T04:58:36.438Z,445.3077
2023-05-21T04:59:38.155Z,445.5385
2023-05-21T05:00:39.930Z,444.6154
2023-05-21T05:01:41.604Z,445.5385
2023-05-21T05:02:43.538Z,447.3846
2023-05-21T05:03:45.127Z,446.0000
2023-05-21T05:04:46.809Z,450.5385
2023-05-21T05:05:48.513Z,450.9231
2023-05-21T05:06:50.244Z,448.6154
2023-05-21T05:07:51.983Z,446.6154
2023-05-21T05:08:53.674Z,446.6154
2023-05-21T05:09:55.416Z,444.1538
2023-05-21T05:10:57.153Z,443.3077
2023-05-21T05:11:58.842Z,444.7692
2023-05-21T05:13:00.567Z,445.3077
2023-05-21T05:14:02.308Z,445.3077
2023-05-21T05:15:04.004Z,445.8462
2023-05-21T05:16:05.759Z,447.1538
2023-05-21T05:17:07.478Z,445.1538
2023-05-21T05:18:09.218Z,446.6923
2023-05-21T05:19:10.935Z,448.3846
2023-05-21T05:20:12.651Z,447.0769
2023-05-21T05:21:14.342Z,447.4615
2023-05-21T05:22:16.089Z,448.6923
2023-05-21T05:23:17.802Z,449.6154
2023-05-21T05:24:19.536Z,450.0000
2023-05-21T05:25:21.254Z,449.8462
2023-05-21T05:26:22.961Z,450.3846
2023-05-21T05:27:24.697Z,449.1538
2023-05-21T05:28:26.426Z,449.3077
2023-05-21T05:29:28.135Z,448.6154
2023-05-21T05:30:29.856Z,447.7692
2023-05-21T05:31:31.653Z,446.7692
2023-05-21T05:32:33.401Z,450.0769
2023-05-21T05:33:35.021Z,450.6923
2023-05-21T05:34:36.738Z,452.0000
2023-05-21T05:35:38.572Z,450.6923
2023-05-21T05:36:40.201Z,450.0769
2023-05-21T05:37:41.939Z,451.3077
2023-05-21T05:38:43.621Z,451.1538
2023-05-21T05:39:45.341Z,449.3846
2023-05-21T05:40:47.056Z,451.1538
2023-05-21T05:41:48.809Z,453.0000
2023-05-21T05:42:50.521Z,452.6154
2023-05-21T05:43:52.243Z,451.3077
2023-05-21T05:44:53.968Z,449.6923
2023-05-21T05:45:55.716Z,450.6154
2023-05-21T05:46:57.385Z,449.3846
2023-05-21T05:47:59.138Z,447.5385
2023-05-21T05:49:00.844Z,447.1538
2023-05-21T05:50:02.569Z,448.6154
2023-05-21T05:51:04.287Z,446.9231
2023-05-21T05:52:05.995Z,447.4615
2023-05-21T05:53:07.718Z,447.6923
2023-05-21T05:54:09.442Z,447.4615
2023-05-21T05:55:11.357Z,448.3077
2023-05-21T05:56:12.865Z,451.0769
2023-05-21T05:57:14.597Z,449.6923
2023-05-21T05:58:16.352Z,449.2308
2023-05-21T05:59:18.066Z,449.0000
2023-05-21T06:00:19.783Z,448.3846
2023-05-21T06:01:21.487Z,446.3846
2023-05-21T06:02:23.338Z,443.6154
2023-05-21T06:03:25.034Z,443.1538
2023-05-21T06:04:26.667Z,441.3077
2023-05-21T06:05:28.408Z,443.4615
2023-05-21T06:06:30.093Z,443.4615
2023-05-21T06:07:31.814Z,444.4615
2023-05-21T06:08:34.234Z,446.0000
2023-05-21T06:09:35.273Z,445.4615
2023-05-21T06:10:36.998Z,445.2308
2023-05-21T06:11:38.737Z,444.0769
2023-05-21T06:12:40.426Z,443.7692
2023-05-21T06:13:42.156Z,443.9231
2023-05-21T06:14:45.220Z,443.9231
2023-05-21T06:16:46.508Z,434.7500
2023-05-21T06:17:48.204Z,438.6923
2023-05-21T06:18:49.867Z,437.9231
2023-05-21T06:19:51.692Z,438.7692
2023-05-21T06:20:53.325Z,441.8462
2023-05-21T06:21:55.035Z,439.4615
2023-05-21T06:22:56.772Z,440.3077
2023-05-21T06:23:58.478Z,443.6923
2023-05-21T06:25:00.247Z,443.6154
2023-05-21T06:26:01.927Z,441.5385
2023-05-21T06:27:03.637Z,441.6923
2023-05-21T06:28:05.391Z,441.5385
2023-05-21T06:29:07.111Z,439.5385
2023-05-21T06:30:08.809Z,439.8462
2023-05-21T06:31:10.533Z,439.6923
2023-05-21T06:32:12.279Z,439.7692
2023-05-21T06:33:14.050Z,438.0769
2023-05-21T06:34:15.728Z,436.3846
2023-05-21T06:35:17.423Z,435.6923
2023-05-21T06:36:19.147Z,438.2308
2023-05-21T06:37:20.862Z,436.3846
2023-05-21T06:38:22.609Z,437.5385
2023-05-21T06:39:24.334Z,438.1538
2023-05-21T06:40:26.051Z,441.6154
2023-05-21T06:41:27.752Z,443.2308
2023-05-21T06:42:29.513Z,445.3077
2023-05-21T06:43:31.221Z,447.3846
2023-05-21T06:44:32.937Z,449.7692
2023-05-21T06:45:34.967Z,452.1538
2023-05-21T06:46:36.398Z,450.9231
2023-05-21T06:47:38.119Z,449.4615
2023-05-21T06:48:39.832Z,450.5385
2023-05-21T06:49:41.547Z,453.8462
2023-05-21T06:50:43.266Z,456.2308
2023-05-21T06:51:44.998Z,456.4615
2023-05-21T06:52:46.687Z,456.0769
2023-05-21T06:53:48.421Z,456.7692
2023-05-21T06:54:50.138Z,457.6923
2023-05-21T06:55:51.872Z,458.3846
2023-05-21T06:56:53.585Z,457.6923
2023-05-21T06:57:55.284Z,456.9231
2023-05-21T06:58:57.013Z,457.8462
2023-05-21T06:59:58.736Z,456.4615
2023-05-21T07:01:00.493Z,456.0000
2023-05-21T07:02:04.379Z,455.7692
2023-05-21T07:03:03.946Z,456.0769
2023-05-21T07:04:05.629Z,453.1538
2023-05-21T07:05:07.369Z,453.4615
2023-05-21T07:06:09.079Z,454.6923
2023-05-21T07:07:10.795Z,453.1538
2023-05-21T07:08:12.501Z,454.3077
2023-05-21T07:09:14.269Z,455.6154
2023-05-21T07:10:15.973Z,455.2308
2023-05-21T07:11:17.710Z,452.9231
2023-05-21T07:12:19.413Z,452.0000
2023-05-21T07:13:21.140Z,452.3077
2023-05-21T07:14:22.860Z,454.3846
2023-05-21T07:15:24.571Z,453.7692
2023-05-21T07:16:26.344Z,451.6923
2023-05-21T07:17:28.086Z,450.0000
2023-05-21T07:18:29.752Z,450.8462
2023-05-21T07:19:31.566Z,452.2308
2023-05-21T07:20:33.191Z,451.0769
2023-05-21T07:21:34.902Z,452.2308
2023-05-21T07:22:36.669Z,452.3846
2023-05-21T07:23:38.386Z,450.3846
2023-05-21T07:24:40.098Z,450.4615
2023-05-21T07:25:41.800Z,450.3846
2023-05-21T07:26:43.524Z,450.1538
2023-05-21T07:27:45.237Z,449.4615
2023-05-21T07:28:47.028Z,447.1538
2023-05-21T07:29:48.705Z,447.8462
2023-05-21T07:30:50.458Z,449.0769
2023-05-21T07:31:52.122Z,448.4615
2023-05-21T07:32:53.881Z,446.6154
2023-05-21T07:33:55.594Z,446.8462
2023-05-21T07:34:57.333Z,445.7692
2023-05-21T07:35:59.057Z,445.3846
2023-05-21T07:37:00.753Z,444.7692
2023-05-21T07:38:02.521Z,445.6154
2023-05-21T07:39:04.203Z,445.7692
2023-05-21T07:40:05.927Z,447.3846
2023-05-21T07:41:07.658Z,448.1538
2023-05-21T07:42:09.395Z,448.2308
2023-05-21T07:43:11.123Z,448.0769
2023-05-21T07:44:12.841Z,447.8462
2023-05-21T07:45:14.550Z,447.9231
2023-05-21T07:46:16.320Z,446.3077
2023-05-21T07:47:18.012Z,445.9231
2023-05-21T07:48:19.745Z,445.7692
2023-05-21T07:49:21.465Z,446.0000
2023-05-21T07:50:23.184Z,446.1538
2023-05-21T07:51:24.917Z,444.6923
2023-05-21T07:52:26.662Z,446.0769
2023-05-21T07:53:28.328Z,443.9231
2023-05-21T07:54:30.084Z,442.7692
2023-05-21T07:55:31.790Z,443.5385
2023-05-21T07:56:33.513Z,445.3846
2023-05-21T07:57:35.266Z,447.0000
2023-05-21T07:58:36.951Z,443.0769
2023-05-21T07:59:38.691Z,441.5385
2023-05-21T08:00:40.576Z,442.3846
2023-05-21T08:01:42.141Z,439.9231
2023-05-21T08:02:44.025Z,439.8462
2023-05-21T08:03:45.695Z,438.4615
2023-05-21T08:04:47.379Z,439.3846
2023-05-21T08:05:49.072Z,440.8462
2023-05-21T08:06:50.755Z,439.3846
2023-05-21T08:07:52.479Z,439.0000
2023-05-21T08:08:54.180Z,439.7692
2023-05-21T08:09:55.909Z,441.6923
2023-05-21T08:10:57.643Z,441.6923
2023-05-21T08:11:59.373Z,441.0000
2023-05-21T08:13:01.073Z,440.6154
2023-05-21T08:14:02.804Z,441.8462
2023-05-21T08:15:04.536Z,440.0000
2023-05-21T08:16:06.279Z,437.3846
2023-05-21T08:17:08.065Z,438.3846
2023-05-21T08:18:09.853Z,439.8462
2023-05-21T08:19:11.503Z,438.9231
2023-05-21T08:20:13.149Z,437.7692
2023-05-21T08:21:14.879Z,439.0000
2023-05-21T08:22:16.595Z,437.9231
2023-05-21T08:23:18.310Z,437.0000
2023-05-21T08:24:20.044Z,437.2308
2023-05-21T08:25:21.767Z,435.4615
2023-05-21T08:26:23.470Z,432.9231
2023-05-21T08:27:25.203Z,433.7692
2023-05-21T08:28:26.935Z,431.4615
2023-05-21T08:29:28.665Z,432.2308
2023-05-21T08:30:30.377Z,431.6154
2023-05-21T08:31:32.098Z,433.4615
2023-05-21T08:32:33.874Z,434.3077
2023-05-21T08:33:35.536Z,433.0000
2023-05-21T08:34:37.259Z,435.4615
2023-05-21T08:35:39.134Z,437.2308
2023-05-21T08:36:40.685Z,435.9231
2023-05-21T08:37:42.406Z,438.6154
2023-05-21T08:38:44.175Z,439.1538
2023-05-21T08:39:45.867Z,437.0000
2023-05-21T08:40:47.596Z,434.3077
2023-05-21T08:41:49.330Z,436.0000
2023-05-21T08:42:51.029Z,437.3077
2023-05-21T08:43:54.329Z,436.6154
2023-05-21T08:48:44.782Z,405.0000
2023-05-21T08:49:46.410Z,416.7692
2023-05-21T08:50:48.128Z,420.8462
2023-05-21T08:51:49.947Z,422.6154
2023-05-21T08:52:51.594Z,424.1538
2023-05-21T08:53:53.292Z,426.1538
2023-05-21T08:54:55.021Z,427.8462
2023-05-21T08:55:56.835Z,426.8462
2023-05-21T08:56:58.495Z,427.3846
2023-05-21T08:58:00.203Z,427.8462
2023-05-21T08:59:01.932Z,427.3846
2023-05-21T09:00:03.630Z,428.1538
2023-05-21T09:01:05.423Z,425.7692
2023-05-21T09:02:07.175Z,426.6923
2023-05-21T09:03:08.911Z,425.9231
2023-05-21T09:04:20.292Z,425.7692
2023-05-21T09:05:12.257Z,425.3077
2023-05-21T09:06:13.977Z,425.7692
2023-05-21T09:07:15.719Z,426.3077
2023-05-21T09:08:17.521Z,426.6154
2023-05-21T09:09:19.148Z,425.9231
2023-05-21T09:10:20.958Z,425.0000
2023-05-21T09:11:22.572Z,428.6154
2023-05-21T09:12:24.294Z,428.1538
2023-05-21T09:13:26.100Z,426.4615
2023-05-21T09:14:27.754Z,427.1538
2023-05-21T09:15:29.516Z,426.9231
2023-05-21T09:16:31.215Z,426.6154
2023-05-21T09:17:32.961Z,425.1538
2023-05-21T09:18:34.618Z,425.9231
2023-05-21T09:19:36.523Z,424.4615
2023-05-21T09:20:38.065Z,423.8462
2023-05-21T09:21:39.793Z,426.1538
2023-05-21T09:22:41.547Z,426.0000
2023-05-21T09:23:43.254Z,424.0769
2023-05-21T09:24:44.984Z,424.0769
2023-05-21T09:25:46.780Z,425.2308
2023-05-21T09:26:48.396Z,426.0769
2023-05-21T09:27:50.120Z,426.0000
2023-05-21T09:28:51.847Z,424.9231
2023-05-21T09:29:53.578Z,425.5385
2023-05-21T09:30:55.311Z,425.3846
2023-05-21T09:31:57.148Z,425.0769
2023-05-21T09:32:58.782Z,424.3077
2023-05-21T09:34:00.439Z,421.4615
2023-05-21T09:35:02.175Z,422.3077
2023-05-21T09:36:03.907Z,421.3846
2023-05-21T09:37:08.537Z,425.6154
2023-05-21T09:39:15.937Z,407.0833
2023-05-21T09:40:17.582Z,414.0000
2023-05-21T09:41:21.959Z,418.7692
2023-05-21T09:45:15.715Z,401.4167
2023-05-21T09:46:17.380Z,409.7692
2023-05-21T09:47:19.068Z,411.7692
2023-05-21T09:48:20.888Z,414.8462
2023-05-21T09:49:22.522Z,415.7692
2023-05-21T09:50:24.234Z,416.4615
2023-05-21T09:51:25.963Z,413.0000
2023-05-21T09:52:27.774Z,414.8462
2023-05-21T09:53:29.455Z,415.7692
2023-05-21T09:54:31.152Z,416.6154
2023-05-21T09:55:32.891Z,417.6154
2023-05-21T09:56:34.629Z,418.0000
2023-05-21T09:57:36.314Z,416.3846
2023-05-21T09:58:38.167Z,417.6154
2023-05-21T09:59:39.800Z,417.8462
2023-05-21T10:00:41.510Z,419.7692
2023-05-21T10:01:43.273Z,421.7692
2023-05-21T10:02:44.982Z,419.3077
2023-05-21T10:03:48.122Z,418.6923
2023-05-21T10:09:35.177Z,404.0000
2023-05-21T10:10:37.003Z,409.8462
2023-05-21T10:11:38.540Z,413.0000
2023-05-21T10:12:40.352Z,417.8462
2023-05-21T10:13:41.995Z,420.8462
2023-05-21T10:14:43.737Z,419.3077
2023-05-21T10:15:45.445Z,418.9231
2023-05-21T10:16:47.245Z,418.6923
2023-05-21T10:17:49.057Z,419.0769
2023-05-21T10:18:50.618Z,418.2308
2023-05-21T10:19:52.350Z,419.3846
2023-05-21T10:20:54.056Z,419.0769
2023-05-21T10:21:55.758Z,418.5385
2023-05-21T10:22:57.476Z,418.0769
2023-05-21T10:23:59.312Z,418.4615
2023-05-21T10:25:00.965Z,418.4615
2023-05-21T10:26:02.668Z,417.0000
2023-05-21T10:27:04.366Z,418.8462
2023-05-21T10:28:06.092Z,422.8462
2023-05-21T10:29:07.822Z,420.4615
2023-05-21T10:30:09.624Z,420.5385
2023-05-21T10:31:11.264Z,418.3077
2023-05-21T10:32:13.036Z,415.8462
2023-05-21T10:33:14.731Z,418.6154
2023-05-21T10:34:16.459Z,419.8462
2023-05-21T10:35:18.154Z,419.6923
2023-05-21T10:36:19.944Z,419.3077
2023-05-21T10:37:21.606Z,417.5385
2023-05-21T10:38:23.332Z,420.3846
2023-05-21T10:39:25.052Z,416.6154
2023-05-21T10:40:26.769Z,416.8462
2023-05-21T10:41:28.489Z,417.1538
2023-05-21T10:42:30.271Z,416.1538
2023-05-21T10:43:31.946Z,414.4615
2023-05-21T10:44:33.669Z,415.9231
2023-05-21T10:45:35.389Z,417.5385
2023-05-21T10:46:37.117Z,416.1538
2023-05-21T10:47:38.859Z,415.6923
2023-05-21T10:48:40.624Z,415.6923
2023-05-21T10:49:42.253Z,418.6154
2023-05-21T10:50:44.011Z,419.4615
2023-05-21T10:51:45.721Z,420.0769
2023-05-21T10:52:47.458Z,417.6154
2023-05-21T10:53:49.206Z,415.6154
2023-05-21T10:54:50.867Z,415.0000
2023-05-21T10:55:52.626Z,417.6154
2023-05-21T10:56:54.337Z,418.5385
2023-05-21T10:57:56.067Z,419.2308
2023-05-21T10:58:57.775Z,415.3077
2023-05-21T10:59:59.591Z,414.0000
2023-05-21T11:01:01.244Z,414.6923
2023-05-21T11:02:02.982Z,415.9231
2023-05-21T11:03:04.799Z,415.9231
2023-05-21T11:04:06.389Z,416.7692
2023-05-21T11:05:08.121Z,417.8462
2023-05-21T11:06:09.913Z,416.3077
2023-05-21T11:07:11.578Z,415.6154
2023-05-21T11:08:13.301Z,414.6154
2023-05-21T11:09:15.031Z,414.6923
2023-05-21T11:10:16.744Z,414.0769
2023-05-21T11:11:18.481Z,413.3077
2023-05-21T11:12:20.291Z,416.3077
2023-05-21T11:13:21.973Z,418.3077
2023-05-21T11:14:23.627Z,419.4615
2023-05-21T11:15:25.378Z,417.0769
2023-05-21T11:16:27.117Z,417.3077
2023-05-21T11:17:28.853Z,420.2308
2023-05-21T11:18:30.635Z,420.3846
2023-05-21T11:19:33.898Z,419.9231
2023-05-21T11:24:35.317Z,404.0833
2023-05-21T11:25:36.895Z,411.7692
2023-05-21T11:26:38.631Z,413.6923
2023-05-21T11:27:40.451Z,412.1538
2023-05-21T11:28:42.082Z,411.6923
2023-05-21T11:29:43.836Z,410.0769
2023-05-21T11:30:45.749Z,409.0769
2023-05-21T11:31:47.359Z,408.4615
2023-05-21T11:32:49.086Z,407.6154
2023-05-21T11:33:50.750Z,408.6923
2023-05-21T11:34:52.458Z,408.3846
2023-05-21T11:35:54.185Z,409.6154
2023-05-21T11:36:55.913Z,410.9231
2023-05-21T11:37:57.614Z,408.7692
2023-05-21T11:38:59.412Z,411.0769
2023-05-21T11:40:01.160Z,411.3846
2023-05-21T11:41:02.827Z,412.9231
2023-05-21T11:42:04.885Z,413.9231
2023-05-21T11:43:06.245Z,414.0000
2023-05-21T11:44:07.979Z,409.3077
2023-05-21T11:45:09.798Z,409.0769
2023-05-21T11:46:11.492Z,411.2308
2023-05-21T11:47:13.176Z,412.9231
2023-05-21T11:48:14.910Z,410.6923
2023-05-21T11:49:16.611Z,410.6154
2023-05-21T11:50:18.451Z,409.3846
2023-05-21T11:51:20.091Z,407.6154
2023-05-21T11:52:21.807Z,409.3077
2023-05-21T11:53:23.499Z,410.0769
2023-05-21T11:54:25.224Z,411.0000
2023-05-21T11:55:26.971Z,410.4615
2023-05-21T11:56:28.795Z,408.9231
2023-05-21T11:57:30.390Z,409.0769
2023-05-21T11:58:32.482Z,407.5385
2023-05-21T11:59:33.840Z,408.3846
2023-05-21T12:00:35.788Z,408.1538
2023-05-21T12:01:37.288Z,408.6154
2023-05-21T12:02:39.141Z,408.3846
2023-05-21T12:03:40.832Z,408.5385
2023-05-21T12:04:42.484Z,408.4615
2023-05-21T12:05:44.187Z,407.6154
2023-05-21T12:06:45.917Z,408.1538
2023-05-21T12:07:47.640Z,407.5385
2023-05-21T12:08:49.439Z,404.6923
2023-05-21T12:09:51.112Z,405.0769
2023-05-21T12:10:52.802Z,406.1538
2023-05-21T12:11:54.530Z,406.3077
2023-05-21T12:12:57.507Z,406.3077
2023-05-21T12:14:58.875Z,392.9167
2023-05-21T12:16:00.569Z,398.8462
2023-05-21T12:17:02.254Z,401.7692
2023-05-21T12:18:04.117Z,402.9231
2023-05-21T12:19:05.756Z,401.6154
2023-05-21T12:20:07.483Z,404.1538
2023-05-21T12:21:10.573Z,404.9231
2023-05-21T12:22:10.976Z,404.4615
2023-05-21T12:23:12.617Z,405.2308
2023-05-21T12:24:14.337Z,406.1538
2023-05-21T12:25:16.082Z,408.6923
2023-05-21T12:26:17.807Z,405.8462